createdAt,value
2022-10-11T00:00:55.550Z,30.70
2022-10-11T00:03:23.639Z,31.00
2022-10-11T00:05:53.719Z,31.20
2022-10-11T00:08:23.337Z,31.40
2022-10-11T00:10:59.296Z,30.90
2022-10-11T00:13:27.708Z,31.50
2022-10-11T00:15:56.549Z,31.70
2022-10-11T00:18:25.377Z,31.50
2022-10-11T00:21:03.156Z,31.60
2022-10-11T00:23:32.847Z,31.70
2022-10-11T00:26:02.935Z,32.00
2022-10-11T00:28:31.982Z,32.00
2022-10-11T00:31:00.390Z,31.70
2022-10-11T00:33:28.342Z,32.00
2022-10-11T00:35:56.290Z,32.40
2022-10-11T00:38:24.233Z,31.70
2022-10-11T00:40:53.557Z,32.10
2022-10-11T00:43:25.628Z,31.80
2022-10-11T00:46:23.677Z,32.30
2022-10-11T00:48:58.863Z,32.50
2022-10-11T00:51:39.170Z,32.50
2022-10-11T00:54:09.380Z,32.40
2022-10-11T00:56:40.901Z,32.30
2022-10-11T00:59:13.945Z,32.20
2022-10-11T01:01:42.209Z,32.20
2022-10-11T01:04:10.188Z,32.60
2022-10-11T01:06:38.252Z,32.70
2022-10-11T01:09:06.650Z,32.70
2022-10-11T01:11:39.254Z,33.50
2022-10-11T01:14:47.419Z,32.60
2022-10-11T01:17:24.745Z,32.50
2022-10-11T01:20:08.853Z,33.00
2022-10-11T01:23:05.953Z,32.70
2022-10-11T01:25:45.637Z,33.10
2022-10-11T01:28:27.812Z,33.10
2022-10-11T01:31:04.405Z,33.10
2022-10-11T01:33:37.427Z,33.20
2022-10-11T01:36:14.274Z,32.90
2022-10-11T01:38:48.607Z,32.90
2022-10-11T01:41:24.054Z,33.40
2022-10-11T01:43:57.251Z,33.00
2022-10-11T01:46:26.833Z,33.00
2022-10-11T01:48:58.080Z,32.80
2022-10-11T01:51:30.248Z,33.50
2022-10-11T01:54:14.787Z,33.40
2022-10-11T01:57:15.116Z,33.50
2022-10-11T01:59:54.597Z,33.20
2022-10-11T02:02:42.517Z,33.30
2022-10-11T02:05:19.121Z,33.40
2022-10-11T02:07:56.671Z,33.80
2022-10-11T02:10:32.699Z,34.40
2022-10-11T02:13:07.243Z,33.80
2022-10-11T02:15:40.208Z,33.50
2022-10-11T02:18:16.003Z,33.60
2022-10-11T02:20:45.332Z,33.90
2022-10-11T02:23:17.916Z,33.70
2022-10-11T02:25:47.193Z,33.80
2022-10-11T02:28:21.798Z,33.80
2022-10-11T02:30:51.770Z,34.00
2022-10-11T02:33:27.879Z,33.80
2022-10-11T02:36:02.123Z,33.50
2022-10-11T02:38:37.734Z,34.00
2022-10-11T02:41:15.392Z,34.10
2022-10-11T02:43:52.568Z,34.00
2022-10-11T02:46:20.682Z,34.10
2022-10-11T02:48:50.626Z,33.50
2022-10-11T02:51:19.193Z,34.40
2022-10-11T02:53:47.628Z,34.20
2022-10-11T02:56:15.532Z,34.20
2022-10-11T02:58:43.476Z,33.30
2022-10-11T03:01:11.483Z,34.30
2022-10-11T03:03:39.441Z,34.70
2022-10-11T03:06:09.400Z,34.60
2022-10-11T03:08:37.466Z,34.60
2022-10-11T03:11:05.389Z,34.30
2022-10-11T03:13:33.304Z,34.80
2022-10-11T03:16:07.221Z,34.40
2022-10-11T03:18:35.513Z,34.70
2022-10-11T03:21:03.460Z,34.80
2022-10-11T03:23:32.792Z,34.80
2022-10-11T03:26:00.736Z,34.70
2022-10-11T03:28:28.823Z,34.70
2022-10-11T03:30:56.843Z,35.20
2022-10-11T03:33:24.925Z,35.00
2022-10-11T03:35:52.877Z,35.00
2022-10-11T03:38:23.451Z,35.10
2022-10-11T03:40:52.931Z,35.10
2022-10-11T03:43:20.881Z,34.10
2022-10-11T03:45:48.830Z,34.10
2022-10-11T03:48:16.777Z,34.30
2022-10-11T03:50:44.747Z,35.10
2022-10-11T03:53:12.746Z,35.00
2022-10-11T03:55:41.965Z,35.10
2022-10-11T03:58:11.237Z,35.20
2022-10-11T04:00:40.298Z,34.20
2022-10-11T04:03:08.224Z,34.30
2022-10-11T04:05:36.159Z,35.20
2022-10-11T04:08:07.354Z,35.10
2022-10-11T04:10:39.905Z,35.20
2022-10-11T04:13:08.041Z,36.10
2022-10-11T04:15:37.930Z,36.00
2022-10-11T04:18:06.961Z,35.20
2022-10-11T04:20:34.872Z,35.30
2022-10-11T04:23:03.093Z,35.30
2022-10-11T04:25:31.016Z,35.40
2022-10-11T04:27:58.939Z,35.20
2022-10-11T04:30:26.951Z,35.50
2022-10-11T04:32:56.765Z,35.40
2022-10-11T04:35:24.701Z,35.70
2022-10-11T04:37:52.656Z,35.50
2022-10-11T04:40:20.605Z,35.80
2022-10-11T04:42:50.368Z,35.70
2022-10-11T04:45:18.315Z,35.70
2022-10-11T04:47:46.269Z,35.10
2022-10-11T04:50:15.763Z,35.90
2022-10-11T04:52:43.756Z,35.40
2022-10-11T04:55:12.225Z,35.60
2022-10-11T04:57:40.163Z,35.30
2022-10-11T05:00:09.797Z,34.50
2022-10-11T05:02:37.746Z,33.00
2022-10-11T05:05:06.923Z,32.30
2022-10-11T05:07:36.240Z,32.00
2022-10-11T05:10:04.629Z,30.70
2022-10-11T05:12:32.571Z,30.50
2022-10-11T05:15:00.546Z,30.50
2022-10-11T05:17:28.523Z,30.40
2022-10-11T05:19:56.524Z,29.70
2022-10-11T05:22:24.469Z,29.70
2022-10-11T05:24:53.718Z,29.50
2022-10-11T05:27:21.765Z,29.60
2022-10-11T05:29:49.690Z,29.60
2022-10-11T05:32:17.618Z,30.00
2022-10-11T05:34:45.545Z,29.10
2022-10-11T05:37:13.559Z,29.10
2022-10-11T05:39:41.632Z,29.10
2022-10-11T05:42:10.888Z,28.90
2022-10-11T05:44:38.841Z,28.60
2022-10-11T05:47:07.065Z,29.00
2022-10-11T05:49:35.065Z,29.10
2022-10-11T05:52:02.983Z,28.60
2022-10-11T05:54:31.667Z,28.40
2022-10-11T05:56:59.588Z,28.40
2022-10-11T05:59:28.939Z,28.30
2022-10-11T06:01:56.892Z,28.20
2022-10-11T06:04:24.880Z,28.40
2022-10-11T06:06:52.836Z,28.40
2022-10-11T06:09:20.793Z,28.40
2022-10-11T06:11:48.832Z,28.00
2022-10-11T06:14:16.760Z,27.60
2022-10-11T06:16:46.064Z,28.50
2022-10-11T06:19:14.100Z,28.00
2022-10-11T06:21:42.078Z,28.00
2022-10-11T06:24:10.118Z,28.90
2022-10-11T06:26:38.064Z,29.40
2022-10-11T06:29:06.447Z,28.90
2022-10-11T06:31:34.554Z,29.00
2022-10-11T06:34:03.812Z,30.30
2022-10-11T06:36:31.769Z,30.00
2022-10-11T06:39:01.336Z,29.90
2022-10-11T06:41:31.425Z,30.30
2022-10-11T06:43:59.537Z,30.10
2022-10-11T06:46:29.340Z,29.80
2022-10-11T06:48:57.387Z,29.90
2022-10-11T06:51:28.560Z,29.00
2022-10-11T06:53:59.288Z,29.70
2022-10-11T06:56:28.665Z,30.50
2022-10-11T06:58:58.664Z,30.10
2022-10-11T07:01:27.742Z,30.60
2022-10-11T07:03:58.025Z,29.90
2022-10-11T07:06:29.612Z,29.50
2022-10-11T07:08:57.850Z,30.00
2022-10-11T07:11:28.120Z,27.10
2022-10-11T07:13:58.716Z,27.50
2022-10-11T07:16:28.137Z,29.10
2022-10-11T07:19:00.577Z,30.20
2022-10-11T07:21:32.713Z,31.70
2022-10-11T07:24:01.415Z,34.70
2022-10-11T07:26:35.253Z,31.90
2022-10-11T07:29:05.857Z,30.50
2022-10-11T07:31:33.885Z,29.70
2022-10-11T07:34:01.829Z,29.60
2022-10-11T07:36:31.452Z,29.60
2022-10-11T07:38:59.427Z,28.90
2022-10-11T07:41:27.392Z,29.80
2022-10-11T07:43:55.501Z,29.40
2022-10-11T07:46:23.504Z,29.50
2022-10-11T07:48:51.580Z,29.80
2022-10-11T07:51:22.034Z,29.60
2022-10-11T07:53:54.445Z,29.60
2022-10-11T07:56:24.985Z,29.40
2022-10-11T07:58:54.520Z,29.30
2022-10-11T08:01:22.909Z,28.80
2022-10-11T08:03:51.925Z,29.10
2022-10-11T08:06:25.928Z,28.60
2022-10-11T08:08:55.209Z,29.20
2022-10-11T08:11:25.778Z,29.60
2022-10-11T08:13:54.314Z,29.10
2022-10-11T08:16:22.772Z,29.50
2022-10-11T08:18:51.109Z,29.60
2022-10-11T08:21:20.106Z,29.60
2022-10-11T08:23:48.073Z,29.40
2022-10-11T08:26:17.338Z,29.30
2022-10-11T08:28:45.338Z,29.40
2022-10-11T08:31:14.939Z,29.30
2022-10-11T08:33:43.654Z,29.30
2022-10-11T08:36:12.180Z,29.30
2022-10-11T08:38:41.634Z,29.10
2022-10-11T08:41:42.035Z,29.20
2022-10-11T08:44:58.193Z,29.20
2022-10-11T08:47:28.453Z,29.60
2022-10-11T08:49:57.078Z,29.60
2022-10-11T08:52:29.860Z,29.20
2022-10-11T08:55:02.632Z,29.30
2022-10-11T08:57:36.740Z,29.00
2022-10-11T09:00:08.770Z,29.00
2022-10-11T09:03:07.461Z,29.20
2022-10-11T09:05:43.134Z,29.20
2022-10-11T09:08:21.466Z,28.80
2022-10-11T09:10:59.931Z,28.60
2022-10-11T09:13:56.357Z,28.40
2022-10-11T09:16:34.842Z,28.80
2022-10-11T09:19:55.394Z,28.60
2022-10-11T09:22:37.714Z,28.50
2022-10-11T09:25:24.934Z,28.40
2022-10-11T09:28:06.439Z,28.20
2022-10-11T09:30:40.935Z,28.10
2022-10-11T09:33:19.200Z,27.90
2022-10-11T09:35:49.776Z,27.60
2022-10-11T09:38:36.707Z,27.20
2022-10-11T09:41:14.274Z,27.60
2022-10-11T09:43:46.446Z,27.30
2022-10-11T09:46:24.025Z,27.40
2022-10-11T09:48:54.459Z,27.00
2022-10-11T09:51:25.660Z,27.20
2022-10-11T09:53:57.748Z,27.30
2022-10-11T09:56:28.092Z,27.30
2022-10-11T09:59:29.506Z,27.50
2022-10-11T10:02:23.471Z,27.20
2022-10-11T10:05:18.580Z,26.70
2022-10-11T10:08:22.258Z,26.80
2022-10-11T10:11:00.869Z,26.70
2022-10-11T10:13:38.537Z,26.80
2022-10-11T10:16:11.518Z,26.80
2022-10-11T10:18:50.658Z,26.90
2022-10-11T10:21:28.575Z,26.80
2022-10-11T10:23:57.805Z,26.70
2022-10-11T10:26:27.863Z,26.30
2022-10-11T10:29:05.821Z,26.10
2022-10-11T10:32:02.044Z,26.30
2022-10-11T10:34:33.798Z,25.60
2022-10-11T10:37:07.766Z,25.60
2022-10-11T10:39:42.493Z,26.10
2022-10-11T10:42:17.393Z,26.00
2022-10-11T10:44:48.581Z,25.20
2022-10-11T10:47:29.964Z,25.20
2022-10-11T10:50:08.684Z,25.60
2022-10-11T10:53:02.957Z,25.50
2022-10-11T10:55:39.022Z,25.30
2022-10-11T10:58:34.236Z,25.20
2022-10-11T11:01:10.782Z,24.70
2022-10-11T11:03:47.618Z,25.00
2022-10-11T11:06:32.767Z,24.60
2022-10-11T11:09:20.681Z,25.10
2022-10-11T11:12:01.599Z,24.10
2022-10-11T11:14:41.232Z,25.20
2022-10-11T11:17:22.476Z,25.30
2022-10-11T11:20:04.870Z,25.10
2022-10-11T11:22:46.757Z,25.30
2022-10-11T11:25:28.608Z,25.20
2022-10-11T11:28:27.433Z,25.00
2022-10-11T11:31:04.729Z,24.40
2022-10-11T11:33:48.696Z,24.80
2022-10-11T11:36:25.817Z,24.80
2022-10-11T11:38:59.449Z,24.90
2022-10-11T11:41:30.042Z,24.90
2022-10-11T11:44:04.305Z,24.90
2022-10-11T11:46:38.010Z,24.80
2022-10-11T11:49:14.405Z,24.90
2022-10-11T11:51:46.145Z,25.10
2022-10-11T11:54:28.813Z,25.20
2022-10-11T11:57:05.317Z,25.70
2022-10-11T11:59:41.513Z,25.70
2022-10-11T12:02:40.255Z,24.20
2022-10-11T12:05:09.889Z,25.90
2022-10-11T12:07:53.290Z,25.80
2022-10-11T12:10:32.072Z,25.40
2022-10-11T12:13:11.368Z,25.70
2022-10-11T12:15:39.441Z,25.60
2022-10-11T12:18:16.493Z,25.50
2022-10-11T12:20:45.567Z,25.30
2022-10-11T12:23:50.576Z,24.80
2022-10-11T12:26:47.845Z,25.20
2022-10-11T12:29:46.485Z,25.50
2022-10-11T12:32:53.136Z,25.20
2022-10-11T12:36:04.022Z,25.00
2022-10-11T12:38:39.594Z,25.00
2022-10-11T12:41:45.732Z,24.90
2022-10-11T12:44:26.150Z,24.60
2022-10-11T12:47:19.913Z,24.70
2022-10-11T12:50:09.349Z,24.70
2022-10-11T12:52:53.046Z,24.50
2022-10-11T12:55:43.473Z,24.40
2022-10-11T12:58:28.152Z,24.50
2022-10-11T13:01:21.988Z,24.30
2022-10-11T13:04:01.517Z,24.20
2022-10-11T13:06:33.889Z,24.00
2022-10-11T13:09:07.130Z,24.20
2022-10-11T13:11:40.145Z,24.10
2022-10-11T13:14:12.647Z,23.90
2022-10-11T13:16:52.735Z,24.20
2022-10-11T13:19:23.906Z,23.90
2022-10-11T13:21:55.649Z,24.00
2022-10-11T13:24:25.129Z,24.00
2022-10-11T13:26:56.590Z,24.00
2022-10-11T13:29:33.616Z,23.90
2022-10-11T13:32:07.534Z,23.80
2022-10-11T13:34:40.166Z,23.60
2022-10-11T13:37:15.936Z,23.80
2022-10-11T13:39:44.018Z,23.30
2022-10-11T13:42:16.183Z,23.80
2022-10-11T13:44:46.365Z,24.00
2022-10-11T13:47:19.773Z,24.50
2022-10-11T13:49:53.371Z,24.30
2022-10-11T13:52:24.232Z,24.40
2022-10-11T13:55:11.275Z,24.10
2022-10-11T13:57:43.573Z,24.00
2022-10-11T14:00:29.604Z,23.80
2022-10-11T14:03:04.725Z,23.60
2022-10-11T14:05:39.002Z,23.50
2022-10-11T14:08:22.861Z,23.80
2022-10-11T14:10:56.425Z,23.40
2022-10-11T14:13:30.999Z,23.50
2022-10-11T14:16:02.398Z,23.70
2022-10-11T14:18:46.479Z,23.50
2022-10-11T14:21:36.571Z,23.40
2022-10-11T14:24:06.979Z,23.70
2022-10-11T14:26:38.844Z,23.50
2022-10-11T14:29:12.473Z,24.20
2022-10-11T14:31:42.265Z,24.20
2022-10-11T14:34:19.080Z,24.60
2022-10-11T14:36:48.165Z,24.20
2022-10-11T14:39:19.155Z,24.30
2022-10-11T14:41:47.697Z,24.40
2022-10-11T14:44:16.976Z,24.40
2022-10-11T14:46:47.342Z,24.10
2022-10-11T14:49:18.961Z,24.10
2022-10-11T14:51:49.226Z,24.30
2022-10-11T14:54:22.169Z,24.00
2022-10-11T14:56:50.297Z,24.10
2022-10-11T14:59:20.797Z,24.40
2022-10-11T15:01:51.743Z,24.20
2022-10-11T15:04:22.352Z,24.10
2022-10-11T15:06:51.742Z,24.40
2022-10-11T15:09:21.358Z,24.70
2022-10-11T15:11:50.749Z,24.70
2022-10-11T15:14:18.804Z,24.30
2022-10-11T15:16:46.801Z,24.40
2022-10-11T15:19:18.044Z,24.60
2022-10-11T15:21:47.476Z,24.50
2022-10-11T15:24:16.066Z,24.30
2022-10-11T15:26:45.520Z,24.60
2022-10-11T15:29:13.932Z,24.50
2022-10-11T15:31:41.877Z,24.70
2022-10-11T15:34:11.066Z,24.40
2022-10-11T15:36:39.104Z,24.50
2022-10-11T15:39:25.937Z,24.20
2022-10-11T15:41:54.160Z,25.30
2022-10-11T15:44:22.083Z,25.40
2022-10-11T15:46:50.116Z,24.30
2022-10-11T15:49:18.744Z,24.80
2022-10-11T15:51:47.152Z,25.10
2022-10-11T15:54:16.453Z,25.10
2022-10-11T15:56:44.401Z,25.30
2022-10-11T15:59:12.589Z,26.50
2022-10-11T16:01:40.694Z,25.50
2022-10-11T16:04:08.791Z,25.80
2022-10-11T16:06:36.801Z,25.40
2022-10-11T16:09:05.112Z,25.90
2022-10-11T16:11:34.448Z,26.20
2022-10-11T16:14:02.464Z,26.30
2022-10-11T16:16:30.412Z,26.20
2022-10-11T16:18:58.300Z,26.30
2022-10-11T16:21:26.281Z,26.30
2022-10-11T16:23:54.233Z,25.90
2022-10-11T16:26:22.237Z,25.80
2022-10-11T16:28:51.652Z,26.20
2022-10-11T16:31:20.943Z,26.20
2022-10-11T16:33:50.089Z,26.10
2022-10-11T16:36:35.558Z,25.90
2022-10-11T16:39:07.861Z,26.50
2022-10-11T16:41:35.849Z,26.00
2022-10-11T16:44:05.840Z,26.00
2022-10-11T16:46:35.078Z,26.20
2022-10-11T16:49:03.293Z,26.40
2022-10-11T16:51:31.904Z,26.10
2022-10-11T16:53:59.887Z,26.00
2022-10-11T16:56:28.182Z,25.90
2022-10-11T16:58:56.758Z,26.40
2022-10-11T17:01:26.528Z,26.20
2022-10-11T17:03:55.557Z,26.30
2022-10-11T17:06:24.945Z,26.40
2022-10-11T17:08:53.835Z,26.20
2022-10-11T17:11:22.441Z,26.40
2022-10-11T17:13:53.208Z,26.60
2022-10-11T17:16:22.635Z,26.50
2022-10-11T17:18:52.275Z,26.60
2022-10-11T17:21:22.312Z,27.10
2022-10-11T17:23:50.690Z,27.00
2022-10-11T17:26:22.179Z,27.10
2022-10-11T17:28:50.411Z,27.20
2022-10-11T17:31:18.963Z,27.40
2022-10-11T17:33:47.100Z,27.30
2022-10-11T17:36:21.404Z,27.10
2022-10-11T17:38:49.830Z,26.90
2022-10-11T17:41:18.510Z,26.90
2022-10-11T17:43:46.507Z,27.20
2022-10-11T17:46:16.469Z,27.30
2022-10-11T17:48:45.396Z,27.50
2022-10-11T17:51:18.276Z,27.40
2022-10-11T17:53:48.586Z,27.40
2022-10-11T17:56:23.935Z,27.80
2022-10-11T17:58:56.572Z,27.60
2022-10-11T18:01:27.511Z,28.10
2022-10-11T18:03:57.914Z,28.30
2022-10-11T18:06:29.862Z,28.30
2022-10-11T18:09:02.773Z,28.40
2022-10-11T18:11:32.263Z,28.20
2022-10-11T18:14:00.254Z,28.60
2022-10-11T18:16:30.307Z,28.40
2022-10-11T18:18:58.577Z,28.20
2022-10-11T18:21:34.265Z,28.70
2022-10-11T18:24:05.329Z,28.80
2022-10-11T18:26:33.485Z,28.90
2022-10-11T18:29:02.059Z,28.30
2022-10-11T18:31:33.690Z,28.80
2022-10-11T18:34:02.125Z,28.50
2022-10-11T18:36:32.727Z,29.00
2022-10-11T18:39:03.371Z,29.00
2022-10-11T18:41:33.584Z,29.20
2022-10-11T18:44:05.140Z,29.00
2022-10-11T18:46:33.816Z,28.80
2022-10-11T18:49:02.273Z,29.50
2022-10-11T18:51:34.252Z,29.20
2022-10-11T18:54:02.856Z,29.70
2022-10-11T18:56:32.289Z,29.30
2022-10-11T18:59:00.694Z,29.70
2022-10-11T19:01:31.368Z,29.90
2022-10-11T19:04:01.911Z,30.00
2022-10-11T19:06:34.079Z,29.50
2022-10-11T19:09:05.378Z,30.00
2022-10-11T19:11:34.124Z,30.00
2022-10-11T19:14:06.885Z,30.00
2022-10-11T19:16:37.543Z,30.00
2022-10-11T19:19:06.157Z,30.50
2022-10-11T19:21:35.639Z,29.40
2022-10-11T19:24:03.618Z,29.80
2022-10-11T19:26:34.591Z,29.20
2022-10-11T19:29:07.659Z,29.50
2022-10-11T19:31:41.291Z,29.60
2022-10-11T19:34:10.124Z,29.10
2022-10-11T19:36:42.132Z,29.70
2022-10-11T19:39:13.348Z,29.70
2022-10-11T19:41:42.249Z,29.80
2022-10-11T19:44:10.868Z,29.50
2022-10-11T19:46:54.627Z,30.00
2022-10-11T19:49:24.931Z,29.80
2022-10-11T19:51:55.155Z,29.70
2022-10-11T19:54:23.781Z,29.40
2022-10-11T19:56:52.465Z,29.90
2022-10-11T19:59:20.605Z,29.90
2022-10-11T20:01:52.632Z,30.20
2022-10-11T20:07:11.631Z,30.20
2022-10-11T20:09:39.601Z,30.40
2022-10-11T20:12:08.257Z,30.40
2022-10-11T20:14:36.423Z,30.50
2022-10-11T20:17:04.355Z,30.70
2022-10-11T20:19:32.380Z,30.70
2022-10-11T20:22:00.906Z,30.40
2022-10-11T20:24:33.435Z,30.70
2022-10-11T20:27:03.736Z,30.70
2022-10-11T20:29:31.837Z,30.70
2022-10-11T20:31:59.987Z,30.40
2022-10-11T20:34:28.607Z,30.90
2022-10-11T20:36:56.613Z,31.20
2022-10-11T20:39:25.218Z,31.10
2022-10-11T20:41:54.791Z,31.10
2022-10-11T20:44:22.871Z,31.80
2022-10-11T20:46:50.808Z,31.20
2022-10-11T20:49:20.540Z,31.50
2022-10-11T20:51:48.900Z,31.50
2022-10-11T20:54:17.960Z,31.70
2022-10-11T20:56:45.932Z,31.50
2022-10-11T20:59:15.279Z,31.70
2022-10-11T21:01:43.719Z,31.50
2022-10-11T21:04:19.525Z,31.70
2022-10-11T21:06:48.730Z,32.00
2022-10-11T21:09:17.861Z,31.50
2022-10-11T21:11:46.536Z,32.00
2022-10-11T21:14:16.053Z,32.00
2022-10-11T21:16:44.193Z,32.00
2022-10-11T21:19:16.055Z,32.30
2022-10-11T21:21:50.975Z,32.30
2022-10-11T21:24:21.268Z,32.80
2022-10-11T21:26:49.257Z,32.60
2022-10-11T21:29:18.900Z,32.20
2022-10-11T21:31:46.869Z,32.40
2022-10-11T21:34:15.073Z,32.60
2022-10-11T21:36:43.398Z,32.60
2022-10-11T21:39:11.422Z,32.80
2022-10-11T21:41:41.845Z,32.90
2022-10-11T21:44:09.826Z,33.20
2022-10-11T21:47:05.545Z,33.10
2022-10-11T21:49:27.209Z,33.10
2022-10-11T21:51:55.533Z,33.40
2022-10-11T21:54:23.673Z,33.00
2022-10-11T21:56:51.621Z,33.60
2022-10-11T21:59:19.599Z,33.50
2022-10-11T22:01:48.980Z,33.70
2022-10-11T22:04:17.111Z,33.20
2022-10-11T22:06:45.029Z,34.00
2022-10-11T22:09:13.348Z,34.00
2022-10-11T22:11:41.423Z,33.60
2022-10-11T22:14:09.411Z,33.70
2022-10-11T22:16:37.599Z,33.90
2022-10-11T22:19:06.949Z,34.10
2022-10-11T22:21:34.903Z,34.20
2022-10-11T22:24:02.870Z,34.00
2022-10-11T22:26:32.098Z,33.70
2022-10-11T22:29:00.757Z,34.00
2022-10-11T22:31:29.475Z,34.00
2022-10-11T22:34:00.613Z,34.10
2022-10-11T22:36:31.304Z,34.30
2022-10-11T22:38:59.461Z,34.50
2022-10-11T22:41:27.712Z,34.30
2022-10-11T22:43:55.657Z,35.00
2022-10-11T22:46:23.619Z,34.60
2022-10-11T22:48:51.567Z,34.70
2022-10-11T22:51:19.644Z,35.00
2022-10-11T22:53:48.923Z,34.70
2022-10-11T22:56:16.972Z,34.60
2022-10-11T22:58:45.356Z,34.90
2022-10-11T23:01:15.795Z,35.30
2022-10-11T23:03:48.962Z,35.20
2022-10-11T23:06:17.445Z,35.50
2022-10-11T23:08:45.364Z,34.20
2022-10-11T23:11:14.733Z,34.20
2022-10-11T23:13:42.677Z,35.00
2022-10-11T23:16:13.197Z,35.20
2022-10-11T23:18:41.558Z,35.20
2022-10-11T23:21:09.915Z,34.40
2022-10-11T23:23:39.545Z,35.10
2022-10-11T23:26:09.580Z,35.30
2022-10-11T23:28:39.907Z,35.20
2022-10-11T23:31:09.704Z,35.70
2022-10-11T23:33:38.076Z,36.50
2022-10-11T23:36:06.945Z,35.70
2022-10-11T23:38:34.876Z,35.50
2022-10-11T23:41:02.945Z,35.00
2022-10-11T23:43:30.913Z,34.50
2022-10-11T23:46:00.511Z,35.40
2022-10-11T23:48:28.564Z,34.90
2022-10-11T23:50:56.488Z,35.70
2022-10-11T23:53:24.476Z,36.00
2022-10-11T23:55:52.457Z,35.40
2022-10-11T23:58:20.512Z,35.00
